sensor_id;sensor_type;location;lat;lon;timestamp;temperature;humidity
4811;DHT22;2419;51.276;6.472;2023-01-06T00:01:27;11.20;99.90
4811;DHT22;2419;51.276;6.472;2023-01-06T00:03:56;11.10;99.90
4811;DHT22;2419;51.276;6.472;2023-01-06T00:06:27;11.10;99.90
4811;DHT22;2419;51.276;6.472;2023-01-06T00:08:58;11.10;99.90
4811;DHT22;2419;51.276;6.472;2023-01-06T00:11:28;11.10;99.90
4811;DHT22;2419;51.276;6.472;2023-01-06T00:13:56;11.10;99.90
4811;DHT22;2419;51.276;6.472;2023-01-06T00:16:25;11.00;99.90
4811;DHT22;2419;51.276;6.472;2023-01-06T00:18:54;11.00;99.90
4811;DHT22;2419;51.276;6.472;2023-01-06T00:21:23;11.10;99.90
4811;DHT22;2419;51.276;6.472;2023-01-06T00:23:52;11.10;99.90
4811;DHT22;2419;51.276;6.472;2023-01-06T00:26:20;11.10;99.90
4811;DHT22;2419;51.276;6.472;2023-01-06T00:28:51;11.10;99.90
4811;DHT22;2419;51.276;6.472;2023-01-06T00:31:19;11.10;99.90
4811;DHT22;2419;51.276;6.472;2023-01-06T00:33:48;11.10;99.90
4811;DHT22;2419;51.276;6.472;2023-01-06T00:36:16;11.10;99.90
4811;DHT22;2419;51.276;6.472;2023-01-06T00:38:44;11.10;99.90
4811;DHT22;2419;51.276;6.472;2023-01-06T00:41:13;11.10;99.90
4811;DHT22;2419;51.276;6.472;2023-01-06T00:44:00;11.10;99.90
4811;DHT22;2419;51.276;6.472;2023-01-06T00:46:29;11.10;99.90
4811;DHT22;2419;51.276;6.472;2023-01-06T00:49:00;11.10;99.90
4811;DHT22;2419;51.276;6.472;2023-01-06T00:51:33;11.10;99.90
4811;DHT22;2419;51.276;6.472;2023-01-06T00:54:01;11.10;99.90
4811;DHT22;2419;51.276;6.472;2023-01-06T00:56:34;11.10;99.90
4811;DHT22;2419;51.276;6.472;2023-01-06T00:59:03;11.00;99.90
4811;DHT22;2419;51.276;6.472;2023-01-06T01:01:31;11.00;99.90
4811;DHT22;2419;51.276;6.472;2023-01-06T01:04:00;11.00;99.90
4811;DHT22;2419;51.276;6.472;2023-01-06T01:06:28;11.10;99.90
4811;DHT22;2419;51.276;6.472;2023-01-06T01:08:57;11.10;99.90
4811;DHT22;2419;51.276;6.472;2023-01-06T01:11:26;11.10;99.90
4811;DHT22;2419;51.276;6.472;2023-01-06T01:14:15;11.10;99.90
4811;DHT22;2419;51.276;6.472;2023-01-06T01:16:43;11.10;99.90
4811;DHT22;2419;51.276;6.472;2023-01-06T01:19:12;11.10;99.90
4811;DHT22;2419;51.276;6.472;2023-01-06T01:21:40;11.10;99.90
4811;DHT22;2419;51.276;6.472;2023-01-06T01:24:09;11.00;99.90
4811;DHT22;2419;51.276;6.472;2023-01-06T01:26:37;11.10;99.90
4811;DHT22;2419;51.276;6.472;2023-01-06T01:29:05;11.10;99.90
4811;DHT22;2419;51.276;6.472;2023-01-06T01:31:35;11.10;99.90
4811;DHT22;2419;51.276;6.472;2023-01-06T01:34:03;11.10;99.90
4811;DHT22;2419;51.276;6.472;2023-01-06T01:36:31;11.10;99.90
4811;DHT22;2419;51.276;6.472;2023-01-06T01:38:59;11.20;99.90
4811;DHT22;2419;51.276;6.472;2023-01-06T01:41:28;11.10;99.90
4811;DHT22;2419;51.276;6.472;2023-01-06T01:43:59;11.20;99.90
4811;DHT22;2419;51.276;6.472;2023-01-06T01:46:30;11.10;99.90
4811;DHT22;2419;51.276;6.472;2023-01-06T01:49:03;11.20;99.90
4811;DHT22;2419;51.276;6.472;2023-01-06T01:51:36;11.10;99.90
4811;DHT22;2419;51.276;6.472;2023-01-06T01:54:08;11.10;99.90
4811;DHT22;2419;51.276;6.472;2023-01-06T01:56:39;11.10;99.90
4811;DHT22;2419;51.276;6.472;2023-01-06T01:59:11;11.10;99.90
4811;DHT22;2419;51.276;6.472;2023-01-06T02:01:42;11.10;99.90
4811;DHT22;2419;51.276;6.472;2023-01-06T02:04:12;11.10;99.90
4811;DHT22;2419;51.276;6.472;2023-01-06T02:06:41;11.10;99.90
4811;DHT22;2419;51.276;6.472;2023-01-06T02:09:13;11.10;99.90
4811;DHT22;2419;51.276;6.472;2023-01-06T02:11:43;11.10;99.90
4811;DHT22;2419;51.276;6.472;2023-01-06T02:14:15;11.10;99.90
4811;DHT22;2419;51.276;6.472;2023-01-06T02:16:55;11.10;99.90
4811;DHT22;2419;51.276;6.472;2023-01-06T02:20:09;11.10;99.90
4811;DHT22;2419;51.276;6.472;2023-01-06T02:22:55;11.20;99.90
4811;DHT22;2419;51.276;6.472;2023-01-06T02:25:59;11.10;99.90
4811;DHT22;2419;51.276;6.472;2023-01-06T02:28:48;11.20;99.90
4811;DHT22;2419;51.276;6.472;2023-01-06T02:34:23;11.10;99.90
4811;DHT22;2419;51.276;6.472;2023-01-06T02:37:00;11.10;99.90
4811;DHT22;2419;51.276;6.472;2023-01-06T02:39:37;11.10;99.90
4811;DHT22;2419;51.276;6.472;2023-01-06T02:42:16;11.10;99.90
4811;DHT22;2419;51.276;6.472;2023-01-06T02:44:49;11.10;99.90
4811;DHT22;2419;51.276;6.472;2023-01-06T02:47:30;11.10;99.90
4811;DHT22;2419;51.276;6.472;2023-01-06T02:50:08;11.10;99.90
4811;DHT22;2419;51.276;6.472;2023-01-06T02:52:43;11.10;99.90
4811;DHT22;2419;51.276;6.472;2023-01-06T02:55:16;11.20;99.90
4811;DHT22;2419;51.276;6.472;2023-01-06T02:57:51;11.10;99.90
4811;DHT22;2419;51.276;6.472;2023-01-06T03:00:22;11.10;99.90
4811;DHT22;2419;51.276;6.472;2023-01-06T03:02:56;11.10;99.90
4811;DHT22;2419;51.276;6.472;2023-01-06T03:05:26;11.10;99.90
4811;DHT22;2419;51.276;6.472;2023-01-06T03:07:56;11.10;99.90
4811;DHT22;2419;51.276;6.472;2023-01-06T03:10:29;11.10;99.90
4811;DHT22;2419;51.276;6.472;2023-01-06T03:13:01;11.10;99.90
4811;DHT22;2419;51.276;6.472;2023-01-06T03:15:33;11.10;99.90
4811;DHT22;2419;51.276;6.472;2023-01-06T03:18:03;11.20;99.90
4811;DHT22;2419;51.276;6.472;2023-01-06T03:20:33;11.20;99.90
4811;DHT22;2419;51.276;6.472;2023-01-06T03:23:02;11.20;99.90
4811;DHT22;2419;51.276;6.472;2023-01-06T03:25:30;11.20;99.90
4811;DHT22;2419;51.276;6.472;2023-01-06T03:27:59;11.20;99.90
4811;DHT22;2419;51.276;6.472;2023-01-06T03:30:36;11.10;99.90
4811;DHT22;2419;51.276;6.472;2023-01-06T03:33:16;11.20;99.90
4811;DHT22;2419;51.276;6.472;2023-01-06T03:35:55;11.20;99.90
4811;DHT22;2419;51.276;6.472;2023-01-06T03:38:34;11.10;99.90
4811;DHT22;2419;51.276;6.472;2023-01-06T03:41:13;11.10;99.90
4811;DHT22;2419;51.276;6.472;2023-01-06T03:43:52;11.10;99.90
4811;DHT22;2419;51.276;6.472;2023-01-06T03:46:24;11.10;99.90
4811;DHT22;2419;51.276;6.472;2023-01-06T03:49:04;11.10;99.90
4811;DHT22;2419;51.276;6.472;2023-01-06T03:51:44;11.10;99.90
4811;DHT22;2419;51.276;6.472;2023-01-06T03:54:21;11.10;99.90
4811;DHT22;2419;51.276;6.472;2023-01-06T03:56:58;11.10;99.90
4811;DHT22;2419;51.276;6.472;2023-01-06T03:59:32;11.10;99.90
4811;DHT22;2419;51.276;6.472;2023-01-06T04:02:02;11.20;99.90
4811;DHT22;2419;51.276;6.472;2023-01-06T04:04:33;11.10;99.90
4811;DHT22;2419;51.276;6.472;2023-01-06T04:07:02;11.10;99.90
4811;DHT22;2419;51.276;6.472;2023-01-06T04:09:34;11.10;99.90
4811;DHT22;2419;51.276;6.472;2023-01-06T04:12:04;11.10;99.90
4811;DHT22;2419;51.276;6.472;2023-01-06T04:14:52;11.20;99.90
4811;DHT22;2419;51.276;6.472;2023-01-06T04:17:20;11.20;99.90
4811;DHT22;2419;51.276;6.472;2023-01-06T04:19:50;11.20;99.90
4811;DHT22;2419;51.276;6.472;2023-01-06T04:22:19;11.20;99.90
4811;DHT22;2419;51.276;6.472;2023-01-06T04:24:47;11.20;99.90
4811;DHT22;2419;51.276;6.472;2023-01-06T04:27:15;11.20;99.90
4811;DHT22;2419;51.276;6.472;2023-01-06T04:29:43;11.20;99.90
4811;DHT22;2419;51.276;6.472;2023-01-06T04:32:12;11.20;99.90
4811;DHT22;2419;51.276;6.472;2023-01-06T04:34:40;11.20;99.90
4811;DHT22;2419;51.276;6.472;2023-01-06T04:37:10;11.20;99.90
4811;DHT22;2419;51.276;6.472;2023-01-06T04:39:38;11.20;99.90
4811;DHT22;2419;51.276;6.472;2023-01-06T04:42:07;11.20;99.90
4811;DHT22;2419;51.276;6.472;2023-01-06T04:44:35;11.20;99.90
4811;DHT22;2419;51.276;6.472;2023-01-06T04:47:03;11.20;99.90
4811;DHT22;2419;51.276;6.472;2023-01-06T04:49:31;11.20;99.90
4811;DHT22;2419;51.276;6.472;2023-01-06T04:51:59;11.20;99.90
4811;DHT22;2419;51.276;6.472;2023-01-06T04:54:29;11.10;99.90
4811;DHT22;2419;51.276;6.472;2023-01-06T04:56:57;11.10;99.90
4811;DHT22;2419;51.276;6.472;2023-01-06T04:59:25;11.10;99.90
4811;DHT22;2419;51.276;6.472;2023-01-06T05:01:53;11.10;99.90
4811;DHT22;2419;51.276;6.472;2023-01-06T05:04:21;11.00;99.90
4811;DHT22;2419;51.276;6.472;2023-01-06T05:06:49;11.00;99.90
4811;DHT22;2419;51.276;6.472;2023-01-06T05:09:17;11.00;99.90
4811;DHT22;2419;51.276;6.472;2023-01-06T05:11:47;11.00;99.90
4811;DHT22;2419;51.276;6.472;2023-01-06T05:14:15;11.00;99.90
4811;DHT22;2419;51.276;6.472;2023-01-06T05:16:45;11.00;99.90
4811;DHT22;2419;51.276;6.472;2023-01-06T05:19:13;11.00;99.90
4811;DHT22;2419;51.276;6.472;2023-01-06T05:21:41;11.00;99.90
4811;DHT22;2419;51.276;6.472;2023-01-06T05:24:09;11.00;99.90
4811;DHT22;2419;51.276;6.472;2023-01-06T05:26:37;11.00;99.90
4811;DHT22;2419;51.276;6.472;2023-01-06T05:29:08;11.00;99.90
4811;DHT22;2419;51.276;6.472;2023-01-06T05:31:39;11.00;99.90
4811;DHT22;2419;51.276;6.472;2023-01-06T05:34:09;10.90;99.90
4811;DHT22;2419;51.276;6.472;2023-01-06T05:36:37;11.00;99.90
4811;DHT22;2419;51.276;6.472;2023-01-06T05:39:05;11.00;99.90
4811;DHT22;2419;51.276;6.472;2023-01-06T05:41:33;11.00;99.90
4811;DHT22;2419;51.276;6.472;2023-01-06T05:44:01;10.90;99.90
4811;DHT22;2419;51.276;6.472;2023-01-06T05:46:30;11.00;99.90
4811;DHT22;2419;51.276;6.472;2023-01-06T05:48:59;10.90;99.90
4811;DHT22;2419;51.276;6.472;2023-01-06T05:51:28;10.90;99.90
4811;DHT22;2419;51.276;6.472;2023-01-06T05:53:56;11.00;99.90
4811;DHT22;2419;51.276;6.472;2023-01-06T05:56:24;11.00;99.90
4811;DHT22;2419;51.276;6.472;2023-01-06T05:58:52;10.90;99.90
4811;DHT22;2419;51.276;6.472;2023-01-06T06:01:23;10.90;99.90
4811;DHT22;2419;51.276;6.472;2023-01-06T06:03:53;11.00;99.90
4811;DHT22;2419;51.276;6.472;2023-01-06T06:06:23;11.00;99.90
4811;DHT22;2419;51.276;6.472;2023-01-06T06:08:52;11.00;99.90
4811;DHT22;2419;51.276;6.472;2023-01-06T06:11:20;11.00;99.90
4811;DHT22;2419;51.276;6.472;2023-01-06T06:13:51;10.90;99.90
4811;DHT22;2419;51.276;6.472;2023-01-06T06:16:21;10.90;99.90
4811;DHT22;2419;51.276;6.472;2023-01-06T06:18:51;10.90;99.90
4811;DHT22;2419;51.276;6.472;2023-01-06T06:21:23;10.90;99.90
4811;DHT22;2419;51.276;6.472;2023-01-06T06:23:51;10.90;99.90
4811;DHT22;2419;51.276;6.472;2023-01-06T06:26:20;10.90;99.90
4811;DHT22;2419;51.276;6.472;2023-01-06T06:28:48;10.90;99.90
4811;DHT22;2419;51.276;6.472;2023-01-06T06:31:18;10.90;99.90
4811;DHT22;2419;51.276;6.472;2023-01-06T06:33:49;10.90;99.90
4811;DHT22;2419;51.276;6.472;2023-01-06T06:36:18;10.90;99.90
4811;DHT22;2419;51.276;6.472;2023-01-06T06:38:50;10.90;99.90
4811;DHT22;2419;51.276;6.472;2023-01-06T06:41:19;10.80;99.90
4811;DHT22;2419;51.276;6.472;2023-01-06T06:43:48;10.90;99.90
4811;DHT22;2419;51.276;6.472;2023-01-06T06:46:18;10.90;99.90
4811;DHT22;2419;51.276;6.472;2023-01-06T06:48:46;10.90;99.90
4811;DHT22;2419;51.276;6.472;2023-01-06T06:51:17;10.90;99.90
4811;DHT22;2419;51.276;6.472;2023-01-06T06:53:48;11.00;99.90
4811;DHT22;2419;51.276;6.472;2023-01-06T06:56:17;11.00;99.90
4811;DHT22;2419;51.276;6.472;2023-01-06T06:58:45;11.00;99.90
4811;DHT22;2419;51.276;6.472;2023-01-06T07:01:15;11.00;99.90
4811;DHT22;2419;51.276;6.472;2023-01-06T07:03:43;10.90;99.90
4811;DHT22;2419;51.276;6.472;2023-01-06T07:06:13;11.00;99.90
4811;DHT22;2419;51.276;6.472;2023-01-06T07:08:43;11.00;99.90
4811;DHT22;2419;51.276;6.472;2023-01-06T07:11:13;11.00;99.90
4811;DHT22;2419;51.276;6.472;2023-01-06T07:13:41;11.00;99.90
4811;DHT22;2419;51.276;6.472;2023-01-06T07:16:09;11.10;99.90
4811;DHT22;2419;51.276;6.472;2023-01-06T07:18:38;11.00;99.90
4811;DHT22;2419;51.276;6.472;2023-01-06T07:21:06;11.00;99.90
4811;DHT22;2419;51.276;6.472;2023-01-06T07:23:36;11.10;99.90
4811;DHT22;2419;51.276;6.472;2023-01-06T07:26:05;11.00;99.90
4811;DHT22;2419;51.276;6.472;2023-01-06T07:28:34;11.00;99.90
4811;DHT22;2419;51.276;6.472;2023-01-06T07:31:04;11.00;99.90
4811;DHT22;2419;51.276;6.472;2023-01-06T07:33:32;11.00;99.90
4811;DHT22;2419;51.276;6.472;2023-01-06T07:36:02;11.00;99.90
4811;DHT22;2419;51.276;6.472;2023-01-06T07:38:38;11.10;99.90
4811;DHT22;2419;51.276;6.472;2023-01-06T07:41:07;11.00;99.90
4811;DHT22;2419;51.276;6.472;2023-01-06T07:43:37;11.00;99.90
4811;DHT22;2419;51.276;6.472;2023-01-06T07:46:07;11.00;99.90
4811;DHT22;2419;51.276;6.472;2023-01-06T07:48:38;11.00;99.90
4811;DHT22;2419;51.276;6.472;2023-01-06T07:51:15;11.00;99.90
4811;DHT22;2419;51.276;6.472;2023-01-06T07:53:47;11.00;99.90
4811;DHT22;2419;51.276;6.472;2023-01-06T07:56:40;11.00;99.90
4811;DHT22;2419;51.276;6.472;2023-01-06T07:59:11;11.10;99.90
4811;DHT22;2419;51.276;6.472;2023-01-06T08:01:39;11.00;99.90
4811;DHT22;2419;51.276;6.472;2023-01-06T08:04:07;11.00;99.90
4811;DHT22;2419;51.276;6.472;2023-01-06T08:06:38;11.00;99.90
4811;DHT22;2419;51.276;6.472;2023-01-06T08:09:07;11.00;99.90
4811;DHT22;2419;51.276;6.472;2023-01-06T08:11:35;11.00;99.90
4811;DHT22;2419;51.276;6.472;2023-01-06T08:14:03;11.00;99.90
4811;DHT22;2419;51.276;6.472;2023-01-06T08:16:32;11.00;99.90
4811;DHT22;2419;51.276;6.472;2023-01-06T08:19:03;11.00;99.90
4811;DHT22;2419;51.276;6.472;2023-01-06T08:21:33;11.00;99.90
4811;DHT22;2419;51.276;6.472;2023-01-06T08:24:04;11.00;99.90
4811;DHT22;2419;51.276;6.472;2023-01-06T08:26:34;11.00;99.90
4811;DHT22;2419;51.276;6.472;2023-01-06T08:29:02;11.00;99.90
4811;DHT22;2419;51.276;6.472;2023-01-06T08:31:33;11.00;99.90
4811;DHT22;2419;51.276;6.472;2023-01-06T08:34:06;11.10;99.90
4811;DHT22;2419;51.276;6.472;2023-01-06T08:36:34;11.10;99.90
4811;DHT22;2419;51.276;6.472;2023-01-06T08:39:02;11.10;99.90
4811;DHT22;2419;51.276;6.472;2023-01-06T08:41:30;11.10;99.90
4811;DHT22;2419;51.276;6.472;2023-01-06T08:43:58;11.10;99.90
4811;DHT22;2419;51.276;6.472;2023-01-06T08:46:26;11.10;99.90
4811;DHT22;2419;51.276;6.472;2023-01-06T08:49:00;11.10;99.90
4811;DHT22;2419;51.276;6.472;2023-01-06T08:51:28;11.00;99.90
4811;DHT22;2419;51.276;6.472;2023-01-06T08:53:56;10.90;99.90
4811;DHT22;2419;51.276;6.472;2023-01-06T08:56:26;10.90;99.90
4811;DHT22;2419;51.276;6.472;2023-01-06T08:58:56;10.80;99.90
4811;DHT22;2419;51.276;6.472;2023-01-06T09:01:28;10.80;99.90
4811;DHT22;2419;51.276;6.472;2023-01-06T09:04:02;10.80;99.90
4811;DHT22;2419;51.276;6.472;2023-01-06T09:06:31;10.90;99.90
4811;DHT22;2419;51.276;6.472;2023-01-06T09:09:00;10.90;99.90
4811;DHT22;2419;51.276;6.472;2023-01-06T09:11:29;10.90;99.90
4811;DHT22;2419;51.276;6.472;2023-01-06T09:13:57;10.80;99.90
4811;DHT22;2419;51.276;6.472;2023-01-06T09:16:26;10.70;99.90
4811;DHT22;2419;51.276;6.472;2023-01-06T09:18:54;10.80;99.90
4811;DHT22;2419;51.276;6.472;2023-01-06T09:21:24;10.80;99.90
4811;DHT22;2419;51.276;6.472;2023-01-06T09:23:52;10.80;99.90
4811;DHT22;2419;51.276;6.472;2023-01-06T09:26:20;10.70;99.90
4811;DHT22;2419;51.276;6.472;2023-01-06T09:28:48;10.60;99.90
4811;DHT22;2419;51.276;6.472;2023-01-06T09:31:16;10.60;99.90
4811;DHT22;2419;51.276;6.472;2023-01-06T09:33:45;10.70;99.90
4811;DHT22;2419;51.276;6.472;2023-01-06T09:36:13;10.70;99.90
4811;DHT22;2419;51.276;6.472;2023-01-06T09:38:43;10.80;99.90
4811;DHT22;2419;51.276;6.472;2023-01-06T09:44:13;11.00;99.90
4811;DHT22;2419;51.276;6.472;2023-01-06T09:46:47;11.00;99.90
4811;DHT22;2419;51.276;6.472;2023-01-06T09:49:22;10.90;99.90
4811;DHT22;2419;51.276;6.472;2023-01-06T09:51:53;11.00;99.90
4811;DHT22;2419;51.276;6.472;2023-01-06T09:54:32;11.00;99.90
4811;DHT22;2419;51.276;6.472;2023-01-06T09:57:04;11.10;99.90
4811;DHT22;2419;51.276;6.472;2023-01-06T09:59:40;11.40;99.90
4811;DHT22;2419;51.276;6.472;2023-01-06T10:02:14;11.40;99.90
4811;DHT22;2419;51.276;6.472;2023-01-06T10:04:44;11.30;99.90
4811;DHT22;2419;51.276;6.472;2023-01-06T10:07:17;11.20;99.90
4811;DHT22;2419;51.276;6.472;2023-01-06T10:09:59;11.30;99.90
4811;DHT22;2419;51.276;6.472;2023-01-06T10:12:40;11.30;99.90
4811;DHT22;2419;51.276;6.472;2023-01-06T10:15:19;11.30;99.90
4811;DHT22;2419;51.276;6.472;2023-01-06T10:18:28;11.40;99.90
4811;DHT22;2419;51.276;6.472;2023-01-06T10:21:06;11.40;99.90
4811;DHT22;2419;51.276;6.472;2023-01-06T10:23:49;11.30;99.90
4811;DHT22;2419;51.276;6.472;2023-01-06T10:26:27;11.30;99.90
4811;DHT22;2419;51.276;6.472;2023-01-06T10:29:01;11.40;99.90
4811;DHT22;2419;51.276;6.472;2023-01-06T10:31:33;11.30;99.90
4811;DHT22;2419;51.276;6.472;2023-01-06T10:34:13;11.40;99.90
4811;DHT22;2419;51.276;6.472;2023-01-06T10:36:45;11.40;99.90
4811;DHT22;2419;51.276;6.472;2023-01-06T10:39:17;11.40;99.90
4811;DHT22;2419;51.276;6.472;2023-01-06T10:41:55;11.50;99.90
4811;DHT22;2419;51.276;6.472;2023-01-06T10:44:45;11.50;99.90
4811;DHT22;2419;51.276;6.472;2023-01-06T10:47:22;11.60;99.90
4811;DHT22;2419;51.276;6.472;2023-01-06T10:49:51;11.60;99.90
4811;DHT22;2419;51.276;6.472;2023-01-06T10:52:21;11.60;99.90
4811;DHT22;2419;51.276;6.472;2023-01-06T10:54:51;11.50;99.90
4811;DHT22;2419;51.276;6.472;2023-01-06T10:57:43;11.60;99.90
4811;DHT22;2419;51.276;6.472;2023-01-06T11:00:17;11.60;99.90
4811;DHT22;2419;51.276;6.472;2023-01-06T11:02:49;11.90;99.90
4811;DHT22;2419;51.276;6.472;2023-01-06T11:05:22;12.10;99.90
4811;DHT22;2419;51.276;6.472;2023-01-06T11:07:56;12.60;99.90
4811;DHT22;2419;51.276;6.472;2023-01-06T11:10:33;12.40;99.90
4811;DHT22;2419;51.276;6.472;2023-01-06T11:13:16;12.40;99.90
4811;DHT22;2419;51.276;6.472;2023-01-06T11:15:48;13.40;99.90
4811;DHT22;2419;51.276;6.472;2023-01-06T11:18:19;13.10;99.90
4811;DHT22;2419;51.276;6.472;2023-01-06T11:21:03;13.60;99.90
4811;DHT22;2419;51.276;6.472;2023-01-06T11:23:33;12.90;99.90
4811;DHT22;2419;51.276;6.472;2023-01-06T11:26:10;13.10;99.90
4811;DHT22;2419;51.276;6.472;2023-01-06T11:28:43;12.80;99.90
4811;DHT22;2419;51.276;6.472;2023-01-06T11:31:20;12.60;99.90
4811;DHT22;2419;51.276;6.472;2023-01-06T11:33:54;12.60;99.90
4811;DHT22;2419;51.276;6.472;2023-01-06T11:36:25;13.20;99.90
4811;DHT22;2419;51.276;6.472;2023-01-06T11:38:55;13.00;99.90
4811;DHT22;2419;51.276;6.472;2023-01-06T11:41:27;12.60;99.90
4811;DHT22;2419;51.276;6.472;2023-01-06T11:44:08;12.50;99.90
4811;DHT22;2419;51.276;6.472;2023-01-06T11:46:44;12.30;99.90
4811;DHT22;2419;51.276;6.472;2023-01-06T11:49:15;12.30;99.90
4811;DHT22;2419;51.276;6.472;2023-01-06T11:51:47;12.20;99.90
4811;DHT22;2419;51.276;6.472;2023-01-06T11:54:24;12.20;99.90
4811;DHT22;2419;51.276;6.472;2023-01-06T11:59:55;12.20;99.90
4811;DHT22;2419;51.276;6.472;2023-01-06T12:02:36;12.20;99.90
4811;DHT22;2419;51.276;6.472;2023-01-06T12:05:17;12.30;99.90
4811;DHT22;2419;51.276;6.472;2023-01-06T12:07:51;12.50;99.90
4811;DHT22;2419;51.276;6.472;2023-01-06T12:10:34;12.50;99.90
4811;DHT22;2419;51.276;6.472;2023-01-06T12:13:10;12.60;99.90
4811;DHT22;2419;51.276;6.472;2023-01-06T12:15:46;12.60;99.90
4811;DHT22;2419;51.276;6.472;2023-01-06T12:18:22;12.50;99.90
4811;DHT22;2419;51.276;6.472;2023-01-06T12:20:51;12.30;99.90
4811;DHT22;2419;51.276;6.472;2023-01-06T12:23:25;12.20;99.90
4811;DHT22;2419;51.276;6.472;2023-01-06T12:25:57;12.10;99.90
4811;DHT22;2419;51.276;6.472;2023-01-06T12:28:29;12.10;99.90
4811;DHT22;2419;51.276;6.472;2023-01-06T12:31:04;12.20;99.90
4811;DHT22;2419;51.276;6.472;2023-01-06T12:33:34;12.30;99.90
4811;DHT22;2419;51.276;6.472;2023-01-06T12:36:09;12.90;99.90
4811;DHT22;2419;51.276;6.472;2023-01-06T12:38:46;13.20;99.90
4811;DHT22;2419;51.276;6.472;2023-01-06T12:41:21;13.00;99.90
4811;DHT22;2419;51.276;6.472;2023-01-06T12:43:54;12.70;99.90
4811;DHT22;2419;51.276;6.472;2023-01-06T12:46:31;12.70;99.90
4811;DHT22;2419;51.276;6.472;2023-01-06T12:49:03;12.50;99.90
4811;DHT22;2419;51.276;6.472;2023-01-06T12:51:37;12.30;99.90
4811;DHT22;2419;51.276;6.472;2023-01-06T12:54:11;12.20;99.90
4811;DHT22;2419;51.276;6.472;2023-01-06T12:56:56;12.00;99.90
4811;DHT22;2419;51.276;6.472;2023-01-06T12:59:33;12.00;99.90
4811;DHT22;2419;51.276;6.472;2023-01-06T13:02:15;11.80;99.90
4811;DHT22;2419;51.276;6.472;2023-01-06T13:05:05;11.70;99.90
4811;DHT22;2419;51.276;6.472;2023-01-06T13:07:44;11.70;99.90
4811;DHT22;2419;51.276;6.472;2023-01-06T13:10:22;11.90;99.90
4811;DHT22;2419;51.276;6.472;2023-01-06T13:13:21;12.10;99.90
4811;DHT22;2419;51.276;6.472;2023-01-06T13:15:52;12.10;99.90
4811;DHT22;2419;51.276;6.472;2023-01-06T13:18:26;12.00;99.90
4811;DHT22;2419;51.276;6.472;2023-01-06T13:21:00;12.10;99.90
4811;DHT22;2419;51.276;6.472;2023-01-06T13:23:39;12.20;99.90
4811;DHT22;2419;51.276;6.472;2023-01-06T13:26:25;12.10;99.90
4811;DHT22;2419;51.276;6.472;2023-01-06T13:29:03;12.00;99.90
4811;DHT22;2419;51.276;6.472;2023-01-06T13:34:51;11.70;99.90
4811;DHT22;2419;51.276;6.472;2023-01-06T13:37:39;11.70;99.90
4811;DHT22;2419;51.276;6.472;2023-01-06T13:40:31;11.80;99.90
4811;DHT22;2419;51.276;6.472;2023-01-06T13:43:05;11.80;99.90
4811;DHT22;2419;51.276;6.472;2023-01-06T13:45:38;11.70;99.90
4811;DHT22;2419;51.276;6.472;2023-01-06T13:48:09;11.70;99.90
4811;DHT22;2419;51.276;6.472;2023-01-06T13:50:42;11.70;99.90
4811;DHT22;2419;51.276;6.472;2023-01-06T13:53:15;11.70;99.90
4811;DHT22;2419;51.276;6.472;2023-01-06T13:55:46;11.70;99.90
4811;DHT22;2419;51.276;6.472;2023-01-06T13:58:33;11.80;99.90
4811;DHT22;2419;51.276;6.472;2023-01-06T14:01:06;11.70;99.90
4811;DHT22;2419;51.276;6.472;2023-01-06T14:03:36;11.60;99.90
4811;DHT22;2419;51.276;6.472;2023-01-06T14:06:06;11.60;99.90
4811;DHT22;2419;51.276;6.472;2023-01-06T14:08:38;11.60;99.90
4811;DHT22;2419;51.276;6.472;2023-01-06T14:11:32;11.70;99.90
4811;DHT22;2419;51.276;6.472;2023-01-06T14:14:02;11.70;99.90
4811;DHT22;2419;51.276;6.472;2023-01-06T14:16:39;11.70;99.90
4811;DHT22;2419;51.276;6.472;2023-01-06T14:19:14;11.60;99.90
4811;DHT22;2419;51.276;6.472;2023-01-06T14:21:43;11.60;99.90
4811;DHT22;2419;51.276;6.472;2023-01-06T14:24:22;11.60;99.90
4811;DHT22;2419;51.276;6.472;2023-01-06T14:26:56;11.70;99.90
4811;DHT22;2419;51.276;6.472;2023-01-06T14:29:46;11.70;99.90
4811;DHT22;2419;51.276;6.472;2023-01-06T14:35:38;11.70;99.90
4811;DHT22;2419;51.276;6.472;2023-01-06T14:38:23;11.70;99.90
4811;DHT22;2419;51.276;6.472;2023-01-06T14:40:56;11.70;99.90
4811;DHT22;2419;51.276;6.472;2023-01-06T14:43:32;11.60;99.90
4811;DHT22;2419;51.276;6.472;2023-01-06T14:46:06;11.50;99.90
4811;DHT22;2419;51.276;6.472;2023-01-06T14:48:43;11.50;99.90
4811;DHT22;2419;51.276;6.472;2023-01-06T14:51:15;11.40;99.90
4811;DHT22;2419;51.276;6.472;2023-01-06T14:53:50;11.40;99.90
4811;DHT22;2419;51.276;6.472;2023-01-06T14:56:23;11.30;99.90
4811;DHT22;2419;51.276;6.472;2023-01-06T14:59:09;11.30;99.90
4811;DHT22;2419;51.276;6.472;2023-01-06T15:01:40;11.30;99.90
4811;DHT22;2419;51.276;6.472;2023-01-06T15:04:23;11.30;99.90
4811;DHT22;2419;51.276;6.472;2023-01-06T15:06:59;11.30;99.90
4811;DHT22;2419;51.276;6.472;2023-01-06T15:09:28;11.20;99.90
4811;DHT22;2419;51.276;6.472;2023-01-06T15:11:56;11.20;99.90
4811;DHT22;2419;51.276;6.472;2023-01-06T15:14:31;11.20;99.90
4811;DHT22;2419;51.276;6.472;2023-01-06T15:17:01;11.20;99.90
4811;DHT22;2419;51.276;6.472;2023-01-06T15:19:31;11.20;99.90
4811;DHT22;2419;51.276;6.472;2023-01-06T15:22:00;11.10;99.90
4811;DHT22;2419;51.276;6.472;2023-01-06T15:24:35;11.10;99.90
4811;DHT22;2419;51.276;6.472;2023-01-06T15:27:10;11.10;99.90
4811;DHT22;2419;51.276;6.472;2023-01-06T15:29:48;11.10;99.90
4811;DHT22;2419;51.276;6.472;2023-01-06T15:32:17;11.10;99.90
4811;DHT22;2419;51.276;6.472;2023-01-06T15:34:47;11.10;99.90
4811;DHT22;2419;51.276;6.472;2023-01-06T15:37:18;11.00;99.90
4811;DHT22;2419;51.276;6.472;2023-01-06T15:39:47;11.10;99.90
4811;DHT22;2419;51.276;6.472;2023-01-06T15:42:18;11.00;99.90
4811;DHT22;2419;51.276;6.472;2023-01-06T15:44:56;11.10;99.90
4811;DHT22;2419;51.276;6.472;2023-01-06T15:47:31;11.10;99.90
4811;DHT22;2419;51.276;6.472;2023-01-06T15:50:01;11.10;99.90
4811;DHT22;2419;51.276;6.472;2023-01-06T15:52:32;11.10;99.90
4811;DHT22;2419;51.276;6.472;2023-01-06T15:55:03;11.10;99.90
4811;DHT22;2419;51.276;6.472;2023-01-06T15:57:34;11.10;99.90
4811;DHT22;2419;51.276;6.472;2023-01-06T16:00:14;11.10;99.90
4811;DHT22;2419;51.276;6.472;2023-01-06T16:02:46;11.10;99.90
4811;DHT22;2419;51.276;6.472;2023-01-06T16:05:34;11.10;99.90
4811;DHT22;2419;51.276;6.472;2023-01-06T16:08:11;11.10;99.90
4811;DHT22;2419;51.276;6.472;2023-01-06T16:10:41;11.10;99.90
4811;DHT22;2419;51.276;6.472;2023-01-06T16:13:25;11.10;99.90
4811;DHT22;2419;51.276;6.472;2023-01-06T16:15:59;11.10;99.90
4811;DHT22;2419;51.276;6.472;2023-01-06T16:18:30;11.00;99.90
4811;DHT22;2419;51.276;6.472;2023-01-06T16:21:01;11.00;99.90
4811;DHT22;2419;51.276;6.472;2023-01-06T16:23:39;11.00;99.90
4811;DHT22;2419;51.276;6.472;2023-01-06T16:26:10;11.00;99.90
4811;DHT22;2419;51.276;6.472;2023-01-06T16:28:43;11.10;99.90
4811;DHT22;2419;51.276;6.472;2023-01-06T16:31:26;11.10;99.90
4811;DHT22;2419;51.276;6.472;2023-01-06T16:33:54;11.10;99.90
4811;DHT22;2419;51.276;6.472;2023-01-06T16:36:23;11.20;99.90
4811;DHT22;2419;51.276;6.472;2023-01-06T16:38:51;11.10;99.90
4811;DHT22;2419;51.276;6.472;2023-01-06T16:41:19;11.10;99.90
4811;DHT22;2419;51.276;6.472;2023-01-06T16:43:48;11.20;99.90
4811;DHT22;2419;51.276;6.472;2023-01-06T16:46:20;11.10;99.90
4811;DHT22;2419;51.276;6.472;2023-01-06T16:48:51;11.20;99.90
4811;DHT22;2419;51.276;6.472;2023-01-06T16:51:21;11.20;99.90
4811;DHT22;2419;51.276;6.472;2023-01-06T16:53:50;11.10;99.90